Avoca, IN

6:07 PM EDT on October 31, 2014 (GMT -0400)
Sunny Slopes | Change Station
CLOSE
Current Station
Personal Weather Station
Location: Bedford, IN
Elevation: 732 ft
Nearby Weather Stations
Active Advisory: Freeze Warning Active Notice: Public Information Statement

Elev 732 ft 38.98 °N, 86.56 °W | Updated 7 seconds ago

Overcast
Overcast
37.2 °F
Feels Like 29 °F
N
13.0
Wind Variable Wind from NW
Gusts 19.0 mph

Today
High -- | Low -- °F
--% Chance of Precip.
Yesterday
High -- | Low -- °F
Precip. -- in
8:12 AM 6:46 PM
First Quarter, 59% visible
Pressure 30.07 in
Visibility 8.0 miles
Clouds Scattered Clouds 2500 ft
Overcast 3100 ft
Windchill 29 °F
Dew Point 32 °F
Humidity 83%
Rainfall 0.11 in
Snow Depth Not available.
UV 0 out of 12
Pollen .10 out of 12
Air Quality Not available.
Flu Activity Not available.
METAR KBMG 312153Z 31013G21KT 8SM -SN SCT025 OVC031 03/M01 A3006 RMK AO2 RAB2054E16UPB28E31SNB16E28B31 SLP182 P0000 T00281006

More Conditions Fewer Conditions

Pressure 30.07 in
Visibility 8.0 miles
Clouds Scattered Clouds 2500 ft
Overcast 3100 ft
Windchill 29 °F
Dew Point 32 °F
Humidity 83%
Rainfall 0.11 in
Snow Depth Not available.
UV 0 out of 12
Pollen .10 out of 12
Air Quality Not available.
Flu Activity Not available.
METAR KBMG 312153Z 31013G21KT 8SM -SN SCT025 OVC031 03/M01 A3006 RMK AO2 RAB2054E16UPB28E31SNB16E28B31 SLP182 P0000 T00281006

More Conditions Fewer Conditions

10-Day Weather Forecast

Almanac

Astronomy

Oct. 31, 2014 Rise Set
Actual Time
Civil Twilight
Nautical Twilight
Astronomical Twilight
Moon
Length of Visible Light
Length of Day
Tomorrow will be .
, % of the Moon is Illuminated

Today's Extremes

State Highs State Lows

Community

WunderPhotos

Upload Photos

1,766,751 photos uploaded!

WunderBlogs® & News

Nearby

Air Quality

  Air Quality AQ Index Pollutant
Not available.

Snow Depth

Station Depth Elevation

Earthquake Activity

City Distance Mag. Time & Date
Minimum magnitude displayed is 2.5.

Coastal Water Temperatures

Place Temperature

Nearby Weather Stations